Time;durP1;ratioP1;P1;durP2;ratioP2;P2;SDS_P1;SDS_P2;PMS_P1;PMS_P2;Temp;Humidity;BMP_temperature;BMP_pressure;BME280_temperature;BME280_humidity;BME280_pressure;Samples;Min_cycle;Max_cycle;Signal;HPM_P1;HPM_P2
2022/11/14 00:00:54;;;;;;;;;;;8.40;70.70;;;;;;5048126;28;84218;-38
2022/11/14 00:03:19;;;;;;;;;;;8.40;70.80;;;;;;5045301;28;82965;-38
2022/11/14 00:05:45;;;;;;;;;;;8.40;70.70;;;;;;5045851;27;83043;-38
2022/11/14 00:08:18;;;;;;;;;;;8.40;70.60;;;;;;5049499;28;82056;-38
2022/11/14 00:10:44;;;;;;;;;;;8.40;70.80;;;;;;5048862;27;81879;-38
2022/11/14 00:13:10;;;;;;;;;;;8.40;70.80;;;;;;5049244;28;83050;-38
2022/11/14 00:15:35;;;;;;;;;;;8.30;70.60;;;;;;5049386;28;81786;-38
2022/11/14 00:18:01;;;;;;;;;;;8.30;70.80;;;;;;5049382;28;81898;-38
2022/11/14 00:20:26;;;;;;;;;;;8.30;70.70;;;;;;5052265;28;82269;-38
2022/11/14 00:22:52;;;;;;;;;;;8.30;70.70;;;;;;5049316;28;82075;-38
2022/11/14 00:25:17;;;;;;;;;;;8.30;70.60;;;;;;5048899;28;82117;-38
2022/11/14 00:27:43;;;;;;;;;;;8.30;70.50;;;;;;5048460;28;82989;-38
2022/11/14 00:30:08;;;;;;;;;;;8.30;70.50;;;;;;5048872;28;82487;-38
2022/11/14 00:32:34;;;;;;;;;;;8.30;70.50;;;;;;5049008;28;83090;-38
2022/11/14 00:34:59;;;;;;;;;;;8.30;70.50;;;;;;5048932;28;81828;-38
2022/11/14 00:37:25;;;;;;;;;;;8.20;70.50;;;;;;5048896;28;82509;-38
2022/11/14 00:39:51;;;;;;;;;;;8.30;70.50;;;;;;5048363;28;83945;-38
2022/11/14 00:42:17;;;;;;;;;;;8.20;70.50;;;;;;5051841;28;82075;-38
2022/11/14 00:44:42;;;;;;;;;;;8.20;70.50;;;;;;5048657;28;81753;-38
2022/11/14 00:47:07;;;;;;;;;;;8.20;70.40;;;;;;5048991;28;82444;-38
2022/11/14 00:49:33;;;;;;;;;;;8.20;70.40;;;;;;5048897;27;82479;-38
2022/11/14 00:51:58;;;;;;;;;;;8.20;70.50;;;;;;5047851;28;83074;-38
2022/11/14 00:54:25;;;;;;;;;;;8.20;70.30;;;;;;5048428;28;82177;-38
2022/11/14 00:56:51;;;;;;;;;;;8.10;70.40;;;;;;5048449;27;82291;-38
2022/11/14 00:59:16;;;;;;;;;;;8.10;70.40;;;;;;5048270;28;82794;-38
2022/11/14 01:01:42;;;;;;;;;;;8.10;70.40;;;;;;5048584;28;82003;-38
2022/11/14 01:04:07;;;;;;;;;;;8.20;70.30;;;;;;5051430;28;82081;-38
2022/11/14 01:06:32;;;;;;;;;;;8.10;70.30;;;;;;5048302;28;82074;-38
2022/11/14 01:08:58;;;;;;;;;;;8.10;70.30;;;;;;5049086;28;82573;-38
2022/11/14 01:11:23;;;;;;;;;;;8.10;70.30;;;;;;5048230;28;82925;-38
2022/11/14 01:13:49;;;;;;;;;;;8.10;70.30;;;;;;5048466;28;82061;-38
2022/11/14 01:16:14;;;;;;;;;;;8.10;70.40;;;;;;5047384;28;83270;-38
2022/11/14 01:18:40;;;;;;;;;;;8.00;70.40;;;;;;5047456;28;84567;-38
2022/11/14 01:21:07;;;;;;;;;;;8.00;70.40;;;;;;5048549;28;82362;-38
2022/11/14 01:23:32;;;;;;;;;;;8.00;70.40;;;;;;5048354;28;82300;-38
2022/11/14 01:26:05;;;;;;;;;;;8.10;70.30;;;;;;5050757;28;83302;-38
2022/11/14 01:28:31;;;;;;;;;;;8.00;70.20;;;;;;5048033;28;82385;-38
2022/11/14 01:31:05;;;;;;;;;;;8.00;70.20;;;;;;5047799;28;82202;-38
2022/11/14 01:33:31;;;;;;;;;;;8.00;70.20;;;;;;5048424;28;81184;-38
2022/11/14 01:35:58;;;;;;;;;;;8.00;70.20;;;;;;5048219;28;81955;-38
2022/11/14 01:38:23;;;;;;;;;;;8.00;70.20;;;;;;5047693;28;82906;-38
2022/11/14 01:40:49;;;;;;;;;;;8.00;70.20;;;;;;5047502;28;83023;-38
2022/11/14 01:43:17;;;;;;;;;;;8.00;70.30;;;;;;5047860;28;83488;-38
2022/11/14 01:45:49;;;;;;;;;;;8.00;70.10;;;;;;5047179;28;84690;-38
2022/11/14 01:48:24;;;;;;;;;;;8.00;70.20;;;;;;5050669;28;82109;-38
2022/11/14 01:50:53;;;;;;;;;;;7.90;70.20;;;;;;5047523;28;82080;-39
2022/11/14 01:53:19;;;;;;;;;;;7.90;70.20;;;;;;5047567;28;82063;-38
2022/11/14 01:55:44;;;;;;;;;;;7.90;70.20;;;;;;5047779;28;82426;-38
2022/11/14 01:58:10;;;;;;;;;;;7.90;70.10;;;;;;5047976;28;82237;-38
2022/11/14 02:00:36;;;;;;;;;;;7.90;70.10;;;;;;5047612;28;82087;-38
2022/11/14 02:03:02;;;;;;;;;;;7.90;70.60;;;;;;5047635;27;81864;-38
2022/11/14 02:05:27;;;;;;;;;;;7.80;70.00;;;;;;5046791;28;84136;-38
2022/11/14 02:07:53;;;;;;;;;;;7.90;70.10;;;;;;5047581;28;82090;-38
2022/11/14 02:10:19;;;;;;;;;;;7.80;70.00;;;;;;5049947;28;82447;-38
2022/11/14 02:12:45;;;;;;;;;;;7.80;70.10;;;;;;5047299;28;82092;-38
2022/11/14 02:15:11;;;;;;;;;;;7.80;70.20;;;;;;5047640;28;82332;-38
2022/11/14 02:17:36;;;;;;;;;;;7.80;70.20;;;;;;5047025;28;84061;-38
2022/11/14 02:20:02;;;;;;;;;;;7.80;70.00;;;;;;5047297;28;82086;-38
2022/11/14 02:22:27;;;;;;;;;;;7.80;70.10;;;;;;5047658;27;82668;-38
2022/11/14 02:24:53;;;;;;;;;;;7.70;70.10;;;;;;5047027;28;82300;-38
2022/11/14 02:27:19;;;;;;;;;;;7.70;70.10;;;;;;5047470;28;82334;-38
2022/11/14 02:29:44;;;;;;;;;;;7.70;70.10;;;;;;5048254;27;82944;-38
2022/11/14 02:32:10;;;;;;;;;;;7.70;70.10;;;;;;5045584;28;82084;-38
2022/11/14 02:34:35;;;;;;;;;;;7.70;70.20;;;;;;5047407;28;82482;-38
2022/11/14 02:37:01;;;;;;;;;;;7.70;70.10;;;;;;5046809;28;82980;-38
2022/11/14 02:39:26;;;;;;;;;;;7.70;70.00;;;;;;5047152;28;82047;-38
2022/11/14 02:41:52;;;;;;;;;;;7.70;70.10;;;;;;5046753;28;82384;-38
2022/11/14 02:44:18;;;;;;;;;;;7.70;70.00;;;;;;5046368;28;83035;-38
2022/11/14 02:46:43;;;;;;;;;;;7.70;70.00;;;;;;5047057;28;81267;-37
2022/11/14 02:49:09;;;;;;;;;;;7.70;70.00;;;;;;5046875;28;81957;-37
2022/11/14 02:51:34;;;;;;;;;;;7.70;70.00;;;;;;5049518;28;82977;-37
2022/11/14 02:54:00;;;;;;;;;;;7.60;70.00;;;;;;5046336;28;83477;-38
2022/11/14 02:56:25;;;;;;;;;;;7.60;70.10;;;;;;5046556;28;83156;-38
2022/11/14 02:58:51;;;;;;;;;;;7.60;70.20;;;;;;5046829;28;82090;-38
2022/11/14 03:01:16;;;;;;;;;;;7.50;70.20;;;;;;5046772;27;82333;-38
2022/11/14 03:03:42;;;;;;;;;;;7.60;70.70;;;;;;5046583;28;83065;-38
2022/11/14 03:06:07;;;;;;;;;;;7.60;70.20;;;;;;5046677;28;82110;-38
2022/11/14 03:08:33;;;;;;;;;;;7.60;70.00;;;;;;5046501;27;82896;-38
2022/11/14 03:11:06;;;;;;;;;;;7.50;70.00;;;;;;5046573;28;82476;-38
2022/11/14 03:13:31;;;;;;;;;;;7.50;70.10;;;;;;5049190;28;82011;-38
2022/11/14 03:15:57;;;;;;;;;;;7.50;70.10;;;;;;5046332;28;83176;-38
2022/11/14 03:18:22;;;;;;;;;;;7.60;70.10;;;;;;5046004;28;82834;-37
2022/11/14 03:20:48;;;;;;;;;;;7.50;70.00;;;;;;5046258;28;83844;-37
2022/11/14 03:23:13;;;;;;;;;;;7.50;70.00;;;;;;5046443;28;82902;-38
2022/11/14 03:25:39;;;;;;;;;;;7.50;69.90;;;;;;5045973;28;82419;-38
2022/11/14 03:28:04;;;;;;;;;;;7.50;69.90;;;;;;5046336;28;81992;-38
2022/11/14 03:30:30;;;;;;;;;;;7.40;70.00;;;;;;5045729;28;83547;-38
2022/11/14 03:32:55;;;;;;;;;;;7.50;69.90;;;;;;5046247;28;82098;-38
2022/11/14 03:35:21;;;;;;;;;;;7.50;70.00;;;;;;5049339;27;82414;-38
2022/11/14 03:37:46;;;;;;;;;;;7.40;70.00;;;;;;5046343;28;82094;-38
2022/11/14 03:40:12;;;;;;;;;;;7.40;70.00;;;;;;5046011;27;82284;-38
2022/11/14 03:42:37;;;;;;;;;;;7.40;70.10;;;;;;5044961;28;83960;-38
2022/11/14 03:45:03;;;;;;;;;;;7.40;70.00;;;;;;5045463;28;82091;-38
2022/11/14 03:47:29;;;;;;;;;;;7.30;69.90;;;;;;5046187;27;82258;-38
2022/11/14 03:49:54;;;;;;;;;;;7.40;70.00;;;;;;5045774;28;82107;-38
2022/11/14 03:52:20;;;;;;;;;;;7.40;69.80;;;;;;5046052;28;82079;-38
2022/11/14 03:54:45;;;;;;;;;;;7.40;69.80;;;;;;5046080;27;82229;-38
2022/11/14 03:57:11;;;;;;;;;;;7.40;69.80;;;;;;5048320;28;82961;-38
2022/11/14 03:59:36;;;;;;;;;;;7.40;69.90;;;;;;5046540;27;83211;-38
2022/11/14 04:02:02;;;;;;;;;;;7.40;69.80;;;;;;5045754;28;82990;-38
2022/11/14 04:04:27;;;;;;;;;;;7.40;70.10;;;;;;5045609;28;82058;-38
2022/11/14 04:06:53;;;;;;;;;;;7.30;69.70;;;;;;5045254;28;82883;-38
2022/11/14 04:09:18;;;;;;;;;;;7.30;69.70;;;;;;5045841;28;82942;-38
2022/11/14 04:11:44;;;;;;;;;;;7.30;69.80;;;;;;5045488;28;81943;-38
2022/11/14 04:14:09;;;;;;;;;;;7.30;69.80;;;;;;5045835;28;82425;-38
2022/11/14 04:16:35;;;;;;;;;;;7.30;69.70;;;;;;5045441;28;81936;-38
2022/11/14 04:19:00;;;;;;;;;;;7.20;69.80;;;;;;5048460;28;81995;-38
2022/11/14 04:21:26;;;;;;;;;;;7.20;69.90;;;;;;5045722;28;83392;-38
2022/11/14 04:23:51;;;;;;;;;;;7.30;69.80;;;;;;5045897;28;81687;-37
2022/11/14 04:26:17;;;;;;;;;;;7.20;69.80;;;;;;5045568;28;81871;-38
2022/11/14 04:28:42;;;;;;;;;;;7.20;69.90;;;;;;5045478;28;83040;-38
2022/11/14 04:31:08;;;;;;;;;;;7.20;69.80;;;;;;5044970;28;83004;-38
2022/11/14 04:33:33;;;;;;;;;;;7.20;69.80;;;;;;5045817;28;83329;-38
2022/11/14 04:35:59;;;;;;;;;;;7.20;69.80;;;;;;5045304;28;83085;-37
2022/11/14 04:38:24;;;;;;;;;;;7.20;69.70;;;;;;5048325;28;82081;-37
2022/11/14 04:40:50;;;;;;;;;;;7.20;69.70;;;;;;5045341;28;83082;-37
2022/11/14 04:43:16;;;;;;;;;;;7.20;69.80;;;;;;5045367;28;82041;-37
2022/11/14 04:45:41;;;;;;;;;;;7.10;69.70;;;;;;5045132;27;82281;-37
2022/11/14 04:48:07;;;;;;;;;;;7.10;69.80;;;;;;5045802;28;81637;-37
2022/11/14 04:50:32;;;;;;;;;;;7.10;69.60;;;;;;5045290;28;82050;-38
2022/11/14 04:52:58;;;;;;;;;;;7.10;69.60;;;;;;5047265;28;82433;-38
2022/11/14 04:55:23;;;;;;;;;;;7.10;69.60;;;;;;5047781;28;83168;-38
2022/11/14 04:57:53;;;;;;;;;;;7.10;69.60;;;;;;5048800;28;82172;-38
2022/11/14 05:00:19;;;;;;;;;;;7.10;69.80;;;;;;5051129;27;83905;-39
2022/11/14 05:02:44;;;;;;;;;;;7.00;69.70;;;;;;5048554;28;82105;-38
2022/11/14 05:05:10;;;;;;;;;;;7.00;69.90;;;;;;5048510;28;82415;-38
2022/11/14 05:07:35;;;;;;;;;;;7.00;69.80;;;;;;5048338;28;82964;-38
2022/11/14 05:10:01;;;;;;;;;;;7.00;69.90;;;;;;5048540;28;82070;-38
2022/11/14 05:12:26;;;;;;;;;;;7.00;69.90;;;;;;5048603;28;82457;-38
2022/11/14 05:14:52;;;;;;;;;;;7.00;69.60;;;;;;5048233;28;83006;-38
2022/11/14 05:17:17;;;;;;;;;;;7.00;69.70;;;;;;5048410;28;82061;-38
2022/11/14 05:19:43;;;;;;;;;;;7.00;69.60;;;;;;5047862;27;82775;-38
2022/11/14 05:22:08;;;;;;;;;;;7.00;69.60;;;;;;5050901;28;83071;-38
2022/11/14 05:24:34;;;;;;;;;;;7.00;69.60;;;;;;5048214;28;82671;-38
2022/11/14 05:26:59;;;;;;;;;;;6.90;69.60;;;;;;5047748;28;83028;-38
2022/11/14 05:29:25;;;;;;;;;;;6.90;69.60;;;;;;5048409;28;82126;-38
2022/11/14 05:31:50;;;;;;;;;;;6.90;69.60;;;;;;5048427;28;83345;-38
2022/11/14 05:34:15;;;;;;;;;;;6.90;69.70;;;;;;5047880;28;82217;-38
2022/11/14 05:36:41;;;;;;;;;;;6.90;69.70;;;;;;5048601;28;81341;-38
2022/11/14 05:39:06;;;;;;;;;;;6.90;69.60;;;;;;5048187;28;81988;-38
2022/11/14 05:41:32;;;;;;;;;;;6.90;69.60;;;;;;5047672;28;83093;-38
2022/11/14 05:43:57;;;;;;;;;;;6.90;69.60;;;;;;5049784;28;82846;-37
2022/11/14 05:46:23;;;;;;;;;;;6.90;69.60;;;;;;5047817;28;82983;-37
2022/11/14 05:48:48;;;;;;;;;;;6.90;70.20;;;;;;5047808;28;82118;-37
2022/11/14 05:51:14;;;;;;;;;;;6.90;69.60;;;;;;5047755;27;82731;-38
2022/11/14 05:53:39;;;;;;;;;;;6.90;69.60;;;;;;5047501;28;83056;-38
2022/11/14 05:56:06;;;;;;;;;;;6.90;69.60;;;;;;5047707;28;82146;-38
2022/11/14 05:58:32;;;;;;;;;;;6.90;69.60;;;;;;5047458;27;83893;-38
2022/11/14 06:01:06;;;;;;;;;;;6.80;69.60;;;;;;5048142;28;82456;-38
2022/11/14 06:03:32;;;;;;;;;;;6.80;69.80;;;;;;5047606;27;82026;-38
2022/11/14 06:05:58;;;;;;;;;;;6.80;69.50;;;;;;5050122;27;82130;-38
2022/11/14 06:08:24;;;;;;;;;;;6.80;69.60;;;;;;5047095;28;82768;-38
2022/11/14 06:10:49;;;;;;;;;;;6.70;69.70;;;;;;5047386;28;83501;-37
2022/11/14 06:13:15;;;;;;;;;;;6.70;69.80;;;;;;5047253;28;83072;-37
2022/11/14 06:15:40;;;;;;;;;;;6.70;69.70;;;;;;5047542;28;81869;-37
2022/11/14 06:18:06;;;;;;;;;;;6.70;69.70;;;;;;5047624;28;82953;-37
2022/11/14 06:20:31;;;;;;;;;;;6.70;69.70;;;;;;5047287;28;82999;-37
2022/11/14 06:22:57;;;;;;;;;;;6.70;69.70;;;;;;5047500;28;82130;-37
2022/11/14 06:25:22;;;;;;;;;;;6.70;69.70;;;;;;5050223;28;82387;-38
2022/11/14 06:27:48;;;;;;;;;;;6.70;69.70;;;;;;5047068;28;81945;-38
2022/11/14 06:30:13;;;;;;;;;;;6.70;69.80;;;;;;5047246;28;83003;-38
2022/11/14 06:32:39;;;;;;;;;;;6.70;70.00;;;;;;5046499;28;83535;-38
2022/11/14 06:35:05;;;;;;;;;;;6.60;69.80;;;;;;5047240;28;82550;-38
2022/11/14 06:37:30;;;;;;;;;;;6.60;69.80;;;;;;5047011;27;83750;-37
2022/11/14 06:39:56;;;;;;;;;;;6.60;69.80;;;;;;5047103;28;83339;-37
2022/11/14 06:42:21;;;;;;;;;;;6.60;69.90;;;;;;5046916;28;82090;-38
2022/11/14 06:44:47;;;;;;;;;;;6.60;69.90;;;;;;5046677;28;82407;-38
2022/11/14 06:47:12;;;;;;;;;;;6.70;69.70;;;;;;5049476;28;83111;-37
2022/11/14 06:49:38;;;;;;;;;;;6.60;69.90;;;;;;5047499;28;82501;-38
2022/11/14 06:52:03;;;;;;;;;;;6.60;70.00;;;;;;5046733;28;83450;-38
2022/11/14 06:54:29;;;;;;;;;;;6.60;70.00;;;;;;5047014;28;81874;-37
2022/11/14 06:56:54;;;;;;;;;;;6.50;69.90;;;;;;5046205;27;83012;-37
2022/11/14 06:59:20;;;;;;;;;;;6.50;70.00;;;;;;5046471;28;83580;-37
2022/11/14 07:01:45;;;;;;;;;;;6.60;70.00;;;;;;5046581;28;82200;-37
2022/11/14 07:04:10;;;;;;;;;;;6.60;70.00;;;;;;5046747;28;82367;-37
2022/11/14 07:06:36;;;;;;;;;;;6.60;70.00;;;;;;5046536;28;83218;-38
2022/11/14 07:09:02;;;;;;;;;;;6.60;69.90;;;;;;5049310;28;82066;-38
2022/11/14 07:11:28;;;;;;;;;;;6.60;69.90;;;;;;5045985;28;84227;-38
2022/11/14 07:13:57;;;;;;;;;;;6.60;69.90;;;;;;5046812;28;81331;-38
2022/11/14 07:16:29;;;;;;;;;;;6.60;69.90;;;;;;5046053;27;81927;-38
2022/11/14 07:18:55;;;;;;;;;;;6.50;70.00;;;;;;5046217;28;83149;-38
2022/11/14 07:21:21;;;;;;;;;;;6.50;69.90;;;;;;5045666;28;83071;-38
2022/11/14 07:23:46;;;;;;;;;;;6.50;69.90;;;;;;5046356;28;83356;-37
2022/11/14 07:26:12;;;;;;;;;;;6.60;69.80;;;;;;5046012;28;82226;-37
2022/11/14 07:28:39;;;;;;;;;;;6.50;70.00;;;;;;5046288;28;83304;-37
2022/11/14 07:31:05;;;;;;;;;;;6.50;70.00;;;;;;5048947;27;82332;-37
2022/11/14 07:33:31;;;;;;;;;;;6.50;69.80;;;;;;5046258;28;82075;-37
2022/11/14 07:35:56;;;;;;;;;;;6.50;69.90;;;;;;5046189;28;82503;-37
2022/11/14 07:38:22;;;;;;;;;;;6.50;69.90;;;;;;5046496;28;81320;-37
2022/11/14 07:40:54;;;;;;;;;;;6.50;70.00;;;;;;5045882;28;82174;-37
2022/11/14 07:43:20;;;;;;;;;;;6.50;70.20;;;;;;5045884;27;83887;-38
2022/11/14 07:45:46;;;;;;;;;;;6.50;70.10;;;;;;5044869;28;83552;-38
2022/11/14 07:48:11;;;;;;;;;;;6.50;70.10;;;;;;5046106;28;82078;-37
2022/11/14 07:50:37;;;;;;;;;;;6.50;70.10;;;;;;5045920;27;82357;-38
2022/11/14 07:53:02;;;;;;;;;;;6.50;70.20;;;;;;5048723;28;83238;-38
2022/11/14 07:55:28;;;;;;;;;;;6.50;70.10;;;;;;5045890;27;82371;-38
2022/11/14 07:57:54;;;;;;;;;;;6.40;70.20;;;;;;5045874;28;83088;-38
2022/11/14 08:00:19;;;;;;;;;;;6.40;70.20;;;;;;5045879;28;82106;-38
2022/11/14 08:02:45;;;;;;;;;;;6.40;70.30;;;;;;5046386;27;82379;-38
2022/11/14 08:05:11;;;;;;;;;;;6.40;70.30;;;;;;5045760;28;83020;-38
2022/11/14 08:07:36;;;;;;;;;;;6.40;70.90;;;;;;5045790;28;82126;-38
2022/11/14 08:10:02;;;;;;;;;;;6.40;70.30;;;;;;5045224;28;82880;-37
2022/11/14 08:12:27;;;;;;;;;;;6.40;70.40;;;;;;5045280;28;83147;-38
2022/11/14 08:14:53;;;;;;;;;;;6.40;70.40;;;;;;5048494;28;82031;-38
2022/11/14 08:17:22;;;;;;;;;;;6.40;70.30;;;;;;5045631;28;83133;-38
2022/11/14 08:19:47;;;;;;;;;;;6.40;70.50;;;;;;5045834;28;82059;-38
2022/11/14 08:22:13;;;;;;;;;;;6.40;70.60;;;;;;5046007;27;82333;-38
2022/11/14 08:24:38;;;;;;;;;;;6.30;70.60;;;;;;5045398;28;82839;-38
2022/11/14 08:27:04;;;;;;;;;;;6.40;70.50;;;;;;5046861;28;81364;-38
2022/11/14 08:29:29;;;;;;;;;;;6.40;70.50;;;;;;5049207;28;82084;-38
2022/11/14 08:31:55;;;;;;;;;;;6.40;70.50;;;;;;5049009;28;83062;-38
2022/11/14 08:34:21;;;;;;;;;;;6.40;70.70;;;;;;5051201;28;82929;-38
2022/11/14 08:36:46;;;;;;;;;;;6.30;70.60;;;;;;5048537;28;84181;-37
2022/11/14 08:39:12;;;;;;;;;;;6.30;70.80;;;;;;5049092;28;83098;-37
2022/11/14 08:41:37;;;;;;;;;;;6.30;70.90;;;;;;5049056;28;81956;-37
2022/11/14 08:44:03;;;;;;;;;;;6.40;70.60;;;;;;5048005;28;84117;-37
2022/11/14 08:46:28;;;;;;;;;;;6.40;70.70;;;;;;5048806;28;82012;-37
2022/11/14 08:48:54;;;;;;;;;;;6.40;70.80;;;;;;5048760;28;81965;-38
2022/11/14 08:51:19;;;;;;;;;;;6.30;70.90;;;;;;5049290;28;81445;-38
2022/11/14 08:53:45;;;;;;;;;;;6.30;71.00;;;;;;5048722;28;82059;-38
2022/11/14 08:56:10;;;;;;;;;;;6.30;71.00;;;;;;5051054;28;82350;-38
2022/11/14 08:58:36;;;;;;;;;;;6.30;71.10;;;;;;5047958;28;83511;-37
2022/11/14 09:01:03;;;;;;;;;;;6.30;71.20;;;;;;5048712;28;82415;-37
2022/11/14 09:03:28;;;;;;;;;;;6.30;71.30;;;;;;5048133;28;83600;-37
2022/11/14 09:05:54;;;;;;;;;;;6.30;71.00;;;;;;5048396;28;82131;-38
2022/11/14 09:08:19;;;;;;;;;;;6.30;71.20;;;;;;5048672;27;82512;-38
2022/11/14 09:10:45;;;;;;;;;;;6.30;71.40;;;;;;5048278;28;83121;-37
2022/11/14 09:13:10;;;;;;;;;;;6.30;71.10;;;;;;5048391;28;82098;-37
2022/11/14 09:15:36;;;;;;;;;;;6.30;71.20;;;;;;5049116;27;82241;-38
2022/11/14 09:18:01;;;;;;;;;;;6.30;71.10;;;;;;5050871;28;82956;-38
2022/11/14 09:20:29;;;;;;;;;;;6.30;71.20;;;;;;5048465;28;82098;-38
2022/11/14 09:22:58;;;;;;;;;;;6.30;71.10;;;;;;5047272;28;84957;-37
2022/11/14 09:25:25;;;;;;;;;;;6.30;71.20;;;;;;5047995;28;82055;-38
2022/11/14 09:27:51;;;;;;;;;;;6.30;71.30;;;;;;5048112;27;83054;-38
2022/11/14 09:30:16;;;;;;;;;;;6.30;71.30;;;;;;5048059;28;83144;-38
2022/11/14 09:32:42;;;;;;;;;;;6.30;71.40;;;;;;5048147;28;82096;-38
2022/11/14 09:35:07;;;;;;;;;;;6.30;71.40;;;;;;5048398;28;81971;-38
2022/11/14 09:37:33;;;;;;;;;;;6.30;71.30;;;;;;5047705;27;82987;-38
2022/11/14 09:39:58;;;;;;;;;;;6.30;71.50;;;;;;5050840;28;81350;-37
2022/11/14 09:42:59;;;;;;;;;;;6.30;71.40;;;;;;5047869;28;82382;-38
2022/11/14 09:45:24;;;;;;;;;;;6.30;71.50;;;;;;5046052;28;82090;-38
2022/11/14 09:47:53;;;;;;;;;;;6.40;71.40;;;;;;5047364;27;83035;-38
2022/11/14 09:50:23;;;;;;;;;;;6.30;71.20;;;;;;5047706;28;82057;-38
2022/11/14 09:52:52;;;;;;;;;;;6.40;71.30;;;;;;5047796;28;82121;-38
2022/11/14 09:55:19;;;;;;;;;;;6.40;71.30;;;;;;5046296;28;86117;-37
2022/11/14 09:57:45;;;;;;;;;;;6.40;71.30;;;;;;5047611;28;83024;-37
2022/11/14 10:00:12;;;;;;;;;;;6.40;71.30;;;;;;5047992;28;82060;-37
2022/11/14 10:02:53;;;;;;;;;;;6.40;71.40;;;;;;5050328;28;82566;-37
2022/11/14 10:05:18;;;;;;;;;;;6.40;71.40;;;;;;5048249;28;81313;-38
2022/11/14 10:07:56;;;;;;;;;;;6.40;71.40;;;;;;5047645;28;82138;-37
2022/11/14 10:10:36;;;;;;;;;;;6.40;71.40;;;;;;5047513;28;82015;-37
2022/11/14 10:13:20;;;;;;;;;;;6.40;71.40;;;;;;5046843;28;82935;-37
2022/11/14 10:15:48;;;;;;;;;;;6.40;71.40;;;;;;5047533;27;83297;-38
2022/11/14 10:18:25;;;;;;;;;;;6.40;71.60;;;;;;5047222;28;82289;-38
2022/11/14 10:20:56;;;;;;;;;;;6.40;71.50;;;;;;5047527;28;82015;-38
2022/11/14 10:23:31;;;;;;;;;;;6.40;71.70;;;;;;5047293;28;82588;-38
2022/11/14 10:26:02;;;;;;;;;;;6.40;71.70;;;;;;5049653;28;83384;-38
2022/11/14 10:28:46;;;;;;;;;;;6.50;71.60;;;;;;5047377;27;82200;-38
2022/11/14 10:31:30;;;;;;;;;;;6.40;71.70;;;;;;5047646;27;82337;-38
2022/11/14 10:34:03;;;;;;;;;;;6.50;71.60;;;;;;5047369;28;82102;-37
2022/11/14 10:36:34;;;;;;;;;;;6.50;71.40;;;;;;5046726;27;83845;-37
2022/11/14 10:39:12;;;;;;;;;;;6.50;71.80;;;;;;5046576;28;84080;-37
2022/11/14 10:41:38;;;;;;;;;;;6.50;72.20;;;;;;5046828;28;82063;-38
2022/11/14 10:44:09;;;;;;;;;;;6.50;72.10;;;;;;5046520;28;82233;-38
2022/11/14 10:46:44;;;;;;;;;;;6.40;72.00;;;;;;5049643;28;82251;-38
2022/11/14 10:49:30;;;;;;;;;;;6.50;72.10;;;;;;5046696;27;82112;-37
2022/11/14 10:51:57;;;;;;;;;;;6.50;72.10;;;;;;5046842;28;82946;-37
2022/11/14 10:54:35;;;;;;;;;;;6.50;72.10;;;;;;5046799;28;82085;-37
2022/11/14 10:57:00;;;;;;;;;;;6.50;72.10;;;;;;5047446;27;81723;-37
2022/11/14 10:59:26;;;;;;;;;;;6.50;72.40;;;;;;5046510;28;82610;-37
2022/11/14 11:01:53;;;;;;;;;;;6.50;72.30;;;;;;5046561;28;82405;-37
2022/11/14 11:04:22;;;;;;;;;;;6.50;72.40;;;;;;5046057;27;82935;-37
2022/11/14 11:06:51;;;;;;;;;;;6.50;72.40;;;;;;5046341;28;84149;-37
2022/11/14 11:12:21;;;;;;;;;;;6.60;72.60;;;;;;5043378;28;82486;-37
2022/11/14 11:15:07;;;;;;;;;;;6.60;72.50;;;;;;5046189;28;82183;-37
2022/11/14 11:17:32;;;;;;;;;;;6.60;72.70;;;;;;5046100;27;82287;-37
2022/11/14 11:20:18;;;;;;;;;;;6.60;72.80;;;;;;5046485;28;82945;-37
2022/11/14 11:22:43;;;;;;;;;;;6.60;73.30;;;;;;5046887;28;81932;-38
2022/11/14 11:25:26;;;;;;;;;;;6.60;72.60;;;;;;5046461;28;81985;-38
2022/11/14 11:28:06;;;;;;;;;;;6.60;73.10;;;;;;5046220;28;82065;-38
2022/11/14 11:30:31;;;;;;;;;;;6.70;72.80;;;;;;5045431;28;83027;-37
2022/11/14 11:33:13;;;;;;;;;;;6.70;72.80;;;;;;5048759;28;82509;-37
2022/11/14 11:35:39;;;;;;;;;;;6.70;72.80;;;;;;5046405;28;81832;-37
2022/11/14 11:38:04;;;;;;;;;;;6.70;72.90;;;;;;5046262;28;82487;-37
2022/11/14 11:40:30;;;;;;;;;;;6.70;72.90;;;;;;5045999;28;83605;-37
2022/11/14 11:42:58;;;;;;;;;;;6.80;73.10;;;;;;5046151;28;82116;-38
2022/11/14 11:45:24;;;;;;;;;;;6.90;72.70;;;;;;5045132;27;83686;-37
2022/11/14 11:48:22;;;;;;;;;;;7.00;72.70;;;;;;5046357;28;82502;-37
2022/11/14 11:50:48;;;;;;;;;;;7.00;72.50;;;;;;5022603;28;82259;-37
2022/11/14 11:53:16;;;;;;;;;;;7.10;72.40;;;;;;5046057;27;82325;-37
2022/11/14 11:55:46;;;;;;;;;;;7.10;72.50;;;;;;5047719;28;83835;-38
2022/11/14 11:58:24;;;;;;;;;;;7.10;72.30;;;;;;5046052;27;83259;-38
2022/11/14 12:00:51;;;;;;;;;;;7.10;72.90;;;;;;5046272;28;82992;-37
2022/11/14 12:03:17;;;;;;;;;;;7.20;72.70;;;;;;5049468;28;82077;-37
2022/11/14 12:05:51;;;;;;;;;;;7.20;72.50;;;;;;5049355;27;83298;-37
2022/11/14 12:08:36;;;;;;;;;;;7.30;72.50;;;;;;5049566;28;82970;-37
2022/11/14 12:11:03;;;;;;;;;;;7.30;72.40;;;;;;5049528;28;81972;-38
2022/11/14 12:13:31;;;;;;;;;;;7.30;72.60;;;;;;5049654;27;82408;-38
2022/11/14 12:16:14;;;;;;;;;;;7.30;72.60;;;;;;5049191;28;83155;-37
2022/11/14 12:18:46;;;;;;;;;;;7.30;72.40;;;;;;5051838;28;82011;-37
2022/11/14 12:21:18;;;;;;;;;;;7.30;72.50;;;;;;5048527;28;84144;-37
2022/11/14 12:23:54;;;;;;;;;;;7.40;72.70;;;;;;5049407;28;81990;-37
2022/11/14 12:26:20;;;;;;;;;;;7.40;72.60;;;;;;5049450;28;82553;-37
2022/11/14 12:28:48;;;;;;;;;;;7.40;72.40;;;;;;5049098;28;82894;-37
2022/11/14 12:31:15;;;;;;;;;;;7.40;72.80;;;;;;5049222;28;81924;-38
2022/11/14 12:33:49;;;;;;;;;;;7.40;72.80;;;;;;5048922;27;82952;-38
2022/11/14 12:36:15;;;;;;;;;;;7.40;72.70;;;;;;5049054;28;82891;-37
2022/11/14 12:38:45;;;;;;;;;;;7.40;72.70;;;;;;5049527;28;81326;-37
2022/11/14 12:41:11;;;;;;;;;;;7.40;72.90;;;;;;5051481;28;81957;-37
2022/11/14 12:43:37;;;;;;;;;;;7.40;72.70;;;;;;5048676;28;81788;-37
2022/11/14 12:46:10;;;;;;;;;;;7.40;72.50;;;;;;5047457;27;83251;-37
2022/11/14 12:48:37;;;;;;;;;;;7.50;72.50;;;;;;5048574;28;84196;-37
2022/11/14 12:51:03;;;;;;;;;;;7.50;72.70;;;;;;5048744;28;82039;-37
2022/11/14 12:53:35;;;;;;;;;;;7.60;72.70;;;;;;5048690;28;82826;-37
2022/11/14 12:56:19;;;;;;;;;;;7.60;72.50;;;;;;5048770;28;81986;-37
2022/11/14 12:58:47;;;;;;;;;;;7.50;72.70;;;;;;5048480;27;82178;-37
2022/11/14 13:01:12;;;;;;;;;;;7.60;73.00;;;;;;5051233;27;82122;-37
2022/11/14 13:03:49;;;;;;;;;;;7.60;72.80;;;;;;5049141;28;81248;-38
2022/11/14 13:06:50;;;;;;;;;;;7.60;72.90;;;;;;5048913;27;81826;-38
2022/11/14 13:09:15;;;;;;;;;;;7.60;72.70;;;;;;5005528;28;82829;-38
2022/11/14 13:23:23;;;;;;;;;;;7.70;72.90;;;;;;5047450;28;81893;-37
2022/11/14 13:26:09;;;;;;;;;;;7.70;72.60;;;;;;5050583;28;83024;-37
2022/11/14 13:28:37;;;;;;;;;;;7.70;72.70;;;;;;5048170;28;82347;-37
2022/11/14 13:31:15;;;;;;;;;;;7.70;72.70;;;;;;5048444;28;82237;-37
2022/11/14 13:33:47;;;;;;;;;;;7.80;72.50;;;;;;5047879;28;82126;-37
2022/11/14 13:36:25;;;;;;;;;;;7.80;72.70;;;;;;5047892;27;81827;-37
2022/11/14 13:39:08;;;;;;;;;;;7.80;72.80;;;;;;5047375;28;84192;-37
2022/11/14 13:41:37;;;;;;;;;;;7.80;72.50;;;;;;5047866;28;81959;-38
2022/11/14 13:44:20;;;;;;;;;;;7.90;72.90;;;;;;5047746;28;82284;-38
2022/11/14 13:46:51;;;;;;;;;;;7.90;72.90;;;;;;5047494;28;82916;-38
2022/11/14 13:49:35;;;;;;;;;;;7.90;72.90;;;;;;5050747;28;82090;-38
2022/11/14 13:52:01;;;;;;;;;;;7.90;72.60;;;;;;5047722;27;83109;-38
2022/11/14 13:54:28;;;;;;;;;;;7.90;72.50;;;;;;5047891;28;82095;-37
2022/11/14 13:56:53;;;;;;;;;;;7.90;72.80;;;;;;5048498;27;82111;-38
2022/11/14 13:59:54;;;;;;;;;;;7.90;72.40;;;;;;5047315;28;82817;-38
2022/11/14 14:02:20;;;;;;;;;;;8.00;72.30;;;;;;5004938;28;82129;-38
2022/11/14 14:04:45;;;;;;;;;;;8.00;72.30;;;;;;5037853;28;83023;-38
2022/11/14 14:07:10;;;;;;;;;;;8.00;72.20;;;;;;5047175;28;82935;-38
2022/11/14 14:09:39;;;;;;;;;;;8.00;72.50;;;;;;5047623;28;82095;-38
2022/11/14 14:12:20;;;;;;;;;;;8.00;71.80;;;;;;5049819;28;82395;-38
2022/11/14 14:14:46;;;;;;;;;;;8.10;72.50;;;;;;5047495;28;81968;-38
2022/11/14 14:17:14;;;;;;;;;;;8.00;72.50;;;;;;5047649;27;82585;-38
2022/11/14 14:19:42;;;;;;;;;;;8.10;72.20;;;;;;5047133;28;83103;-38
2022/11/14 14:22:18;;;;;;;;;;;8.10;72.10;;;;;;5047665;28;81345;-38
2022/11/14 14:25:02;;;;;;;;;;;8.10;72.30;;;;;;5045947;28;82048;-38
2022/11/14 14:27:43;;;;;;;;;;;8.10;72.50;;;;;;5046866;27;83262;-37
2022/11/14 14:30:10;;;;;;;;;;;8.10;72.20;;;;;;5046811;28;82801;-38
2022/11/14 14:32:35;;;;;;;;;;;8.20;72.20;;;;;;5047053;27;83384;-38
2022/11/14 14:35:20;;;;;;;;;;;8.20;72.00;;;;;;5049670;28;83040;-38
2022/11/14 14:37:50;;;;;;;;;;;8.20;72.20;;;;;;5047314;28;81991;-38
2022/11/14 14:40:22;;;;;;;;;;;8.20;72.20;;;;;;5046689;28;84275;-38
2022/11/14 14:42:48;;;;;;;;;;;8.20;72.50;;;;;;5045543;28;82046;-38
2022/11/14 14:45:15;;;;;;;;;;;8.20;72.20;;;;;;5046361;27;84035;-38
2022/11/14 14:47:41;;;;;;;;;;;8.20;72.50;;;;;;5047138;28;83661;-38
2022/11/14 14:50:12;;;;;;;;;;;8.20;72.20;;;;;;5046909;28;82068;-38